createdAt,value
2023-03-26T00:01:59.503Z,93.91
2023-03-26T00:05:59.645Z,89.84
2023-03-26T00:09:59.788Z,95.62
2023-03-26T00:13:59.925Z,92.44
2023-03-26T00:18:00.158Z,91.60
2023-03-26T00:22:00.226Z,91.81
2023-03-26T00:26:00.391Z,91.55
2023-03-26T00:30:00.573Z,88.50
2023-03-26T00:34:00.705Z,90.75
2023-03-26T00:38:01.145Z,86.94
2023-03-26T00:42:01.082Z,91.66
2023-03-26T00:46:01.161Z,88.18
2023-03-26T00:50:01.264Z,88.50
2023-03-26T00:54:01.453Z,89.65
2023-03-26T00:58:01.571Z,88.81
2023-03-26T01:02:01.745Z,87.81
2023-03-26T01:06:02.017Z,90.80
2023-03-26T01:10:01.989Z,89.26
2023-03-26T01:14:02.103Z,89.89
2023-03-26T01:18:02.266Z,89.36
2023-03-26T01:22:02.384Z,91.58
2023-03-26T01:26:02.594Z,90.67
2023-03-26T01:30:02.673Z,88.82
2023-03-26T01:38:02.954Z,90.37
2023-03-26T01:42:03.100Z,90.86
2023-03-26T01:46:03.668Z,83.07
2023-03-26T01:50:03.464Z,87.80
2023-03-26T01:54:03.604Z,81.78
2023-03-26T01:58:03.710Z,84.45
2023-03-26T02:02:03.923Z,87.66
2023-03-26T02:06:04.014Z,85.23
2023-03-26T02:10:04.153Z,82.19
2023-03-26T02:14:04.290Z,86.38
2023-03-26T02:18:04.442Z,88.01
2023-03-26T02:22:04.598Z,85.80
2023-03-26T02:26:04.741Z,89.52
2023-03-26T02:30:04.905Z,88.66
2023-03-26T02:34:05.065Z,90.86
2023-03-26T02:38:05.186Z,88.23
2023-03-26T02:42:05.119Z,88.61
2023-03-26T02:46:05.102Z,88.08
2023-03-26T02:50:04.897Z,89.86
2023-03-26T02:54:04.812Z,89.39
2023-03-26T02:58:04.709Z,86.26
2023-03-26T03:02:04.626Z,84.28
2023-03-26T03:14:04.329Z,87.56
2023-03-26T03:18:04.235Z,87.31
2023-03-26T03:22:04.228Z,81.41
2023-03-26T03:26:04.112Z,81.90
2023-03-26T03:30:04.033Z,86.01
2023-03-26T03:34:04.050Z,87.42
2023-03-26T03:38:03.891Z,85.32
2023-03-26T03:42:03.823Z,83.14
2023-03-26T03:46:03.758Z,84.01
2023-03-26T03:50:03.630Z,84.53
2023-03-26T03:54:03.532Z,76.86
2023-03-26T03:58:03.455Z,78.54
2023-03-26T04:02:03.369Z,81.23
2023-03-26T04:06:03.279Z,79.36
2023-03-26T04:10:03.441Z,80.70
2023-03-26T04:14:03.592Z,83.77
2023-03-26T04:18:03.843Z,84.56
2023-03-26T04:22:03.889Z,82.32
2023-03-26T04:26:04.045Z,79.22
2023-03-26T04:30:04.727Z,80.15
2023-03-26T04:34:04.341Z,75.21
2023-03-26T04:38:04.501Z,77.62
2023-03-26T04:42:04.662Z,78.18
2023-03-26T04:46:04.889Z,78.64
2023-03-26T04:50:04.995Z,79.81
2023-03-26T04:54:05.078Z,79.77
2023-03-26T04:58:05.191Z,75.62
2023-03-26T05:02:05.395Z,77.28
2023-03-26T05:06:05.412Z,80.03
2023-03-26T05:10:05.537Z,77.19
2023-03-26T05:14:05.635Z,82.02
2023-03-26T05:18:05.760Z,81.59
2023-03-26T05:22:05.870Z,78.77
2023-03-26T05:26:05.985Z,78.48
2023-03-26T05:30:06.131Z,75.78
2023-03-26T05:34:06.762Z,72.63
2023-03-26T05:38:06.430Z,77.37
2023-03-26T05:42:06.597Z,74.42
2023-03-26T05:46:07.312Z,70.79
2023-03-26T05:50:06.926Z,66.50
2023-03-26T05:54:07.102Z,65.51
2023-03-26T05:58:07.301Z,63.08
2023-03-26T06:02:07.429Z,67.53
2023-03-26T06:06:07.617Z,66.29
2023-03-26T06:10:07.775Z,65.52
2023-03-26T06:14:07.945Z,67.19
2023-03-26T06:18:08.142Z,68.83
2023-03-26T06:22:08.330Z,66.77
2023-03-26T06:26:08.398Z,65.83
2023-03-26T06:30:08.788Z,72.49
2023-03-26T06:34:08.708Z,66.93
2023-03-26T06:38:08.818Z,67.73
2023-03-26T06:42:08.953Z,66.57
2023-03-26T06:46:09.096Z,63.89
2023-03-26T06:50:09.209Z,64.07
2023-03-26T06:54:09.338Z,68.35
2023-03-26T06:58:09.478Z,64.55
2023-03-26T07:02:09.368Z,66.93
2023-03-26T07:06:09.336Z,65.75
2023-03-26T07:10:09.192Z,60.34
2023-03-26T07:14:09.087Z,62.65
2023-03-26T07:18:08.991Z,63.60
2023-03-26T07:22:08.902Z,62.41
2023-03-26T07:26:08.812Z,61.16
2023-03-26T07:30:08.728Z,62.24
2023-03-26T07:34:08.630Z,64.30
2023-03-26T07:38:08.614Z,60.33
2023-03-26T07:42:08.462Z,57.86
2023-03-26T07:46:08.496Z,61.52
2023-03-26T07:50:08.524Z,60.87
2023-03-26T07:54:08.587Z,62.78
2023-03-26T07:58:08.609Z,62.62
2023-03-26T08:02:08.630Z,62.60
2023-03-26T08:06:08.634Z,63.92
2023-03-26T08:10:08.668Z,67.89
2023-03-26T08:14:08.650Z,63.88
2023-03-26T08:18:08.721Z,65.55
2023-03-26T08:22:08.640Z,61.41
2023-03-26T08:26:08.695Z,65.67
2023-03-26T08:30:08.662Z,65.75
2023-03-26T08:34:08.688Z,68.33
2023-03-26T08:38:09.010Z,63.42
2023-03-26T08:42:08.711Z,64.26
2023-03-26T08:46:08.744Z,63.37
2023-03-26T08:50:08.796Z,61.35
2023-03-26T08:54:08.790Z,61.45
2023-03-26T08:58:09.322Z,61.94
2023-03-26T09:02:08.951Z,56.08
2023-03-26T09:06:08.901Z,59.75
2023-03-26T09:10:08.934Z,54.36
2023-03-26T09:14:08.967Z,53.67
2023-03-26T09:18:09.069Z,55.73
2023-03-26T09:22:09.027Z,56.96
2023-03-26T09:26:09.036Z,59.82
2023-03-26T09:30:09.054Z,58.37
2023-03-26T09:34:09.845Z,58.69
2023-03-26T09:38:09.102Z,59.02
2023-03-26T09:42:09.174Z,57.61
2023-03-26T09:46:09.415Z,54.65
2023-03-26T09:50:09.152Z,56.19
2023-03-26T09:54:09.181Z,57.38
2023-03-26T09:58:09.292Z,54.03
2023-03-26T10:02:09.225Z,56.10
2023-03-26T10:06:09.244Z,54.35
2023-03-26T10:10:09.272Z,53.97
2023-03-26T10:14:09.374Z,53.40
2023-03-26T10:18:27.747Z,52.47
2023-03-26T10:22:10.211Z,53.96
2023-03-26T10:26:09.115Z,53.16
2023-03-26T10:30:09.018Z,55.41
2023-03-26T10:34:08.870Z,55.35
2023-03-26T10:38:09.779Z,55.70
2023-03-26T10:42:08.642Z,55.19
2023-03-26T10:46:08.564Z,54.21
2023-03-26T10:50:08.483Z,55.52
2023-03-26T10:54:08.481Z,60.48
2023-03-26T10:58:08.462Z,52.63
2023-03-26T11:02:08.482Z,56.53
2023-03-26T11:06:08.536Z,56.02
2023-03-26T11:10:08.893Z,56.20
2023-03-26T11:14:08.894Z,52.74
2023-03-26T11:18:08.942Z,56.25
2023-03-26T11:22:08.678Z,53.11
2023-03-26T11:26:08.738Z,54.15
2023-03-26T11:30:08.765Z,49.70
2023-03-26T11:34:08.819Z,51.98
2023-03-26T11:38:08.888Z,54.13
2023-03-26T11:42:09.014Z,47.10
2023-03-26T11:46:09.035Z,48.24
2023-03-26T11:50:09.068Z,50.24
2023-03-26T11:54:09.122Z,47.86
2023-03-26T11:58:10.621Z,47.77
2023-03-26T12:02:09.299Z,47.55
2023-03-26T12:06:09.335Z,48.17
2023-03-26T12:10:19.035Z,49.80
2023-03-26T12:14:10.336Z,50.76
2023-03-26T12:18:09.358Z,47.74
2023-03-26T12:22:09.157Z,48.61
2023-03-26T12:26:09.199Z,49.24
2023-03-26T12:30:09.374Z,44.30
2023-03-26T12:34:10.333Z,44.57
2023-03-26T12:38:09.597Z,45.04
2023-03-26T12:44:44.853Z,46.79
2023-03-26T12:47:54.123Z,45.74
2023-03-26T12:50:10.463Z,46.99
2023-03-26T12:54:09.374Z,39.78
2023-03-26T12:58:13.308Z,36.00
2023-03-26T13:02:09.250Z,31.19
2023-03-26T13:06:09.178Z,35.21
2023-03-26T13:10:09.100Z,39.47
2023-03-26T13:14:09.031Z,33.52
2023-03-26T13:18:09.196Z,31.34
2023-03-26T13:22:09.343Z,31.42
2023-03-26T13:26:09.460Z,25.34
2023-03-26T13:30:09.590Z,26.16
2023-03-26T13:34:09.729Z,26.00
2023-03-26T13:38:09.849Z,30.66
2023-03-26T13:42:10.906Z,25.95
2023-03-26T13:46:10.156Z,29.56
2023-03-26T13:50:10.870Z,26.79
2023-03-26T13:54:10.483Z,30.19
2023-03-26T13:58:10.651Z,29.12
2023-03-26T14:02:10.740Z,31.02
2023-03-26T14:06:10.800Z,37.50
2023-03-26T14:10:10.944Z,36.39
2023-03-26T14:14:11.070Z,36.86
2023-03-26T14:18:11.210Z,41.37
2023-03-26T14:22:11.345Z,42.31
2023-03-26T14:26:11.489Z,42.77
2023-03-26T14:30:11.620Z,45.32
2023-03-26T14:34:11.779Z,45.66
2023-03-26T14:38:11.894Z,45.22
2023-03-26T14:42:12.058Z,47.48
2023-03-26T14:46:12.260Z,47.36
2023-03-26T14:50:12.391Z,48.43
2023-03-26T14:54:12.614Z,51.17
2023-03-26T14:58:12.700Z,51.18
2023-03-26T15:02:12.917Z,52.82
2023-03-26T15:06:13.039Z,55.47
2023-03-26T15:10:13.209Z,61.90
2023-03-26T15:14:13.361Z,64.78
2023-03-26T15:18:13.559Z,62.79
2023-03-26T15:22:13.688Z,63.60
2023-03-26T15:26:13.842Z,66.91
2023-03-26T15:30:14.124Z,68.09
2023-03-26T15:34:14.170Z,70.53
2023-03-26T15:38:14.322Z,73.94
2023-03-26T15:42:14.467Z,69.73
2023-03-26T15:46:14.639Z,67.88
2023-03-26T15:50:14.784Z,68.58
2023-03-26T15:54:14.942Z,68.51
2023-03-26T15:58:15.184Z,70.39
2023-03-26T16:02:15.269Z,66.53
2023-03-26T16:06:15.414Z,71.94
2023-03-26T16:10:15.580Z,70.67
2023-03-26T16:14:15.753Z,70.96
2023-03-26T16:18:15.675Z,68.20
2023-03-26T16:22:15.587Z,71.51
2023-03-26T16:26:15.520Z,74.17
2023-03-26T16:30:15.478Z,70.31
2023-03-26T16:34:15.449Z,70.46
2023-03-26T16:38:15.381Z,71.58
2023-03-26T16:42:15.425Z,74.66
2023-03-26T16:46:15.303Z,71.11
2023-03-26T16:50:15.191Z,72.30
2023-03-26T16:54:15.522Z,73.46
2023-03-26T16:58:15.034Z,79.52
2023-03-26T17:02:15.179Z,75.91
2023-03-26T17:06:15.345Z,79.09
2023-03-26T17:10:15.521Z,78.28
2023-03-26T17:14:15.676Z,78.61
2023-03-26T17:18:16.050Z,76.32
2023-03-26T17:22:16.016Z,77.19
2023-03-26T17:26:16.187Z,78.44
2023-03-26T17:30:16.366Z,78.30
2023-03-26T17:34:16.579Z,71.68
2023-03-26T17:38:16.784Z,73.66
2023-03-26T17:42:16.961Z,66.36
2023-03-26T17:46:16.919Z,66.97
2023-03-26T17:50:16.792Z,70.74
2023-03-26T17:54:16.729Z,64.36
2023-03-26T17:58:16.676Z,66.25
2023-03-26T18:02:16.645Z,61.66
2023-03-26T18:06:16.625Z,63.39
2023-03-26T18:10:16.521Z,62.89
2023-03-26T18:14:16.438Z,63.03
2023-03-26T18:18:16.375Z,65.53
2023-03-26T18:22:16.328Z,65.49
2023-03-26T18:26:16.428Z,61.75
2023-03-26T18:30:16.614Z,65.44
2023-03-26T18:34:16.792Z,63.71
2023-03-26T18:38:16.800Z,64.02
2023-03-26T18:42:22.672Z,65.55
2023-03-26T18:46:17.641Z,67.10
2023-03-26T18:50:16.567Z,61.89
2023-03-26T18:54:16.654Z,64.52
2023-03-26T18:58:16.576Z,65.51
2023-03-26T19:02:16.623Z,66.56
2023-03-26T19:06:16.462Z,67.54
2023-03-26T19:10:16.582Z,65.31
2023-03-26T19:14:17.005Z,66.09
2023-03-26T19:18:16.371Z,63.18
2023-03-26T19:22:16.238Z,53.70
2023-03-26T19:26:16.167Z,58.07
2023-03-26T19:30:16.096Z,54.26
2023-03-26T19:34:16.034Z,57.10
2023-03-26T19:38:16.229Z,55.18
2023-03-26T19:42:16.203Z,50.67
2023-03-26T19:46:16.134Z,54.24
2023-03-26T19:50:16.054Z,51.00
2023-03-26T19:54:16.061Z,56.49
2023-03-26T19:58:15.906Z,57.88
2023-03-26T20:02:15.885Z,55.16
2023-03-26T20:06:15.769Z,60.24
2023-03-26T20:10:15.668Z,61.35
2023-03-26T20:14:15.720Z,59.05
2023-03-26T20:18:15.607Z,59.39
2023-03-26T20:22:15.509Z,57.56
2023-03-26T20:26:15.471Z,60.25
2023-03-26T20:34:15.354Z,60.29
2023-03-26T20:38:16.002Z,62.13
2023-03-26T20:42:16.125Z,60.53
2023-03-26T20:46:15.137Z,61.20
2023-03-26T20:50:15.117Z,59.76
2023-03-26T20:54:15.049Z,62.99
2023-03-26T20:58:15.016Z,62.46
2023-03-26T21:02:15.717Z,62.81
2023-03-26T21:06:14.937Z,66.70
2023-03-26T21:10:14.871Z,67.81
2023-03-26T21:14:14.803Z,64.32
2023-03-26T21:18:14.738Z,64.07
2023-03-26T21:22:14.692Z,65.82
2023-03-26T21:26:14.620Z,61.28
2023-03-26T21:30:14.725Z,64.44
2023-03-26T21:34:14.651Z,64.48
2023-03-26T21:38:14.595Z,64.57
2023-03-26T21:42:14.496Z,61.49
2023-03-26T21:46:14.479Z,62.98
2023-03-26T21:50:14.403Z,63.24
2023-03-26T21:54:14.343Z,64.12
2023-03-26T21:58:14.285Z,63.40
2023-03-26T22:02:14.211Z,64.36
2023-03-26T22:06:14.138Z,65.81
2023-03-26T22:10:14.233Z,63.62
2023-03-26T22:14:14.110Z,62.81
2023-03-26T22:18:14.020Z,63.77
2023-03-26T22:22:13.943Z,63.15
2023-03-26T22:26:13.860Z,57.94
2023-03-26T22:30:13.785Z,60.00
2023-03-26T22:34:13.710Z,57.74
2023-03-26T22:38:13.642Z,57.16
2023-03-26T22:42:13.576Z,58.36
2023-03-26T22:46:13.538Z,55.14
2023-03-26T22:50:13.486Z,55.46
2023-03-26T22:54:13.402Z,55.10
2023-03-26T22:58:13.328Z,57.32
2023-03-26T23:02:13.273Z,54.69
2023-03-26T23:06:13.194Z,54.31
2023-03-26T23:10:13.132Z,56.58
2023-03-26T23:14:13.041Z,56.38
2023-03-26T23:18:13.045Z,56.79
2023-03-26T23:22:13.181Z,55.33
2023-03-26T23:26:12.812Z,55.30
2023-03-26T23:30:12.851Z,56.51
